DW5244 Weather Reports


time (UTC)temp
F
wind
direction
speed
knots
gust
knots
rain 1hr
in
rain 24hr
in
rain mn
in
humidity
%
barometer
mb
20220812000100 91 345 6.1 12.2 0.00 0.00 0.00 34 1007.2
20220811234619 90 5 7.8 13.9 0.00 0.00 0.00 34 1007.2
20220811233107 90 60 5.2 20.9 0.00 0.00 0.00 35 1007.2
20220811231612 90 37 11.3 20.0 0.00 0.00 0.00 34 1007.4
20220811230115 90 65 7.8 14.8 0.00 0.00 0.00 34 1007.1
20220811224636 89 68 10.4 16.5 0.00 0.00 0.00 33 1007.2
20220811223055 90 85 8.7 14.8 0.00 0.00 0.00 31 1007.3
20220811221554 90 26 11.3 18.2 0.00 0.00 0.00 33 1007.5
20220811220102 89 23 8.7 15.6 0.00 0.00 0.00 34 1007.7
20220811214551 88 355 13.9 18.2 0.00 0.00 0.00 36 1008.0
20220811213059 88 5 11.3 20.9 0.00 0.00 0.00 37 1008.6
20220811211559 89 351 11.3 21.7 0.00 0.00 0.00 35 1008.8
20220811210127 90 32 16.5 25.2 0.00 0.00 0.00 34 1008.8
20220811204600 94 53 5.2 10.4 0.00 0.00 0.00 27 1008.5
20220811203044 95 127 2.6 7.8 0.00 0.00 0.00 28 1008.5
20220811201542 95 39 5.2 8.7 0.00 0.00 0.00 28 1008.8
20220811200041 95 261 2.6 6.1 0.00 0.00 0.00 28 1008.7
20220811194547 95 130 3.5 11.3 0.00 0.00 0.00 28 1008.9
20220811193048 94 229 5.2 9.6 0.00 0.00 0.00 28 1008.9
20220811191543 92 157 4.3 10.4 0.00 0.00 0.00 29 1009.3
20220811190058 95 350 7.0 10.4 0.00 0.00 0.00 27 1009.6
20220811184605 97 111 7.0 11.3 0.00 0.00 0.00 26 1010.1
20220811183030 95 146 4.3 13.9 0.00 0.00 0.00 28 1010.2
20220811181526 96 171 2.6 13.0 0.00 0.00 0.00 27 1010.4
20220811180028 96 174 0.9 12.2 0.00 0.00 0.00 28 1010.8
20220811174525 95 119 1.7 10.4 0.00 0.00 0.00 30 1011.0
20220811173013 93 146 0.9 9.6 0.00 0.00 0.00 32 1011.3
20220811171509 91 177 0.9 7.0 0.00 0.00 0.00 34 1011.6
20220811170011 91 253 4.3 8.7 0.00 0.00 0.00 33 1011.7
20220811164501 90 211 5.2 7.8 0.00 0.00 0.00 35 1011.7
20220811163105 90 120 1.7 7.0 0.00 0.00 0.00 36 1011.9
20220811161612 89 104 1.7 7.0 0.00 0.00 0.00 37 1011.8
20220811160100 89 194 0.9 5.2 0.00 0.00 0.00 37 1011.8
20220811154546 88 133 1.7 5.2 0.00 0.00 0.00 39 1011.7
20220811153040 86 146 3.5 7.0 0.00 0.00 0.00 42 1011.7
20220811151540 84 161 1.7 4.3 0.00 0.00 0.00 44 1011.8
20220811150034 83 54 2.6 7.8 0.00 0.00 0.00 48 1011.7
20220811144526 81 355 4.3 8.7 0.00 0.00 0.00 50 1011.8
20220811143039 80 333 7.0 10.4 0.00 0.00 0.00 52 1011.8
20220811141526 78 332 8.7 10.4 0.00 0.00 0.00 54 1011.7
20220811140013 77 348 7.8 10.4 0.00 0.00 0.00 57 1011.7
20220811134507 75 347 7.8 10.4 0.00 0.00 0.00 60 1011.6
20220811133005 74 355 9.6 11.3 0.00 0.00 0.00 62 1011.6
20220811131609 73 355 9.6 12.2 0.00 0.00 0.00 63 1011.5
20220811130056 73 330 9.6 13.0 0.00 0.00 0.00 63 1011.4
20220811124554 73 323 8.7 11.3 0.00 0.00 0.00 62 1011.1
20220811123049 73 344 9.6 12.2 0.00 0.00 0.00 62 1011.0
20220811121600 73 360 10.4 13.0 0.00 0.00 0.00 62 1010.8
20220811120052 73 348 11.3 13.9 0.00 0.00 0.00 61 1010.7
20220811114550 74 331 9.6 12.2 0.00 0.00 0.00 61 1010.6
20220811113107 74 11 7.8 10.4 0.00 0.00 0.00 61 1010.5
20220811111554 74 341 9.6 12.2 0.00 0.00 0.00 61 1010.4
20220811110057 74 319 7.0 10.4 0.00 0.00 0.00 60 1010.5
20220811104536 74 350 0.9 7.0 0.00 0.00 0.00 60 1010.5
20220811103035 75 344 4.3 7.0 0.00 0.00 0.00 59 1010.7
20220811101556 75 15 5.2 9.6 0.00 0.00 0.00 58 1010.8
20220811100034 76 355 7.8 10.4 0.00 0.00 0.00 58 1010.9
20220811094606 76 341 6.1 10.4 0.00 0.00 0.00 57 1010.9
20220811093024 76 328 6.1 12.2 0.00 0.00 0.00 57 1010.9
20220811091523 77 5 5.2 9.6 0.00 0.00 0.00 56 1010.9
20220811090027 77 43 3.5 11.3 0.00 0.00 0.00 55 1011.1
20220811084522 77 82 3.5 12.2 0.00 0.00 0.00 55 1010.9
20220811083116 77 104 7.0 11.3 0.00 0.00 0.00 55 1011.1
20220811081514 78 98 5.2 12.2 0.00 0.00 0.00 54 1011.0
20220811080012 78 107 7.8 17.4 0.00 0.00 0.00 53 1011.0
20220811074509 78 92 11.3 20.0 0.00 0.00 0.00 53 1011.2
20220811073007 79 109 11.3 17.4 0.00 0.00 0.00 52 1011.2
20220811071518 79 74 10.4 15.6 0.00 0.00 0.00 52 1011.3
20220811070002 79 71 10.4 20.0 0.00 0.00 0.00 51 1011.3
20220811064621 80 99 11.3 18.2 0.00 0.00 0.00 50 1011.4
20220811063056 80 57 12.2 20.0 0.00 0.00 0.00 49 1011.5
20220811061554 81 57 10.4 20.0 0.00 0.00 0.00 48 1011.5
20220811060053 82 40 7.8 14.8 0.00 0.00 0.00 46 1011.7
20220811054545 82 62 5.2 10.4 0.00 0.00 0.00 41 1011.6
20220811053050 83 105 4.3 11.3 0.00 0.00 0.00 39 1011.3
20220811051547 83 106 7.0 15.6 0.00 0.00 0.00 37 1011.3
20220811050041 84 109 7.8 13.9 0.00 0.00 0.00 36 1011.3
20220811044536 84 50 6.1 12.2 0.00 0.00 0.00 36 1011.2
20220811043037 84 69 5.2 11.3 0.00 0.00 0.00 36 1011.0
20220811041535 85 77 7.8 13.9 0.00 0.00 0.00 36 1010.8
20220811040035 85 95 8.7 15.6 0.00 0.00 0.00 36 1010.6
20220811034539 85 49 7.8 13.0 0.00 0.00 0.00 36 1010.5
20220811033033 86 140 7.0 23.5 0.00 0.00 0.00 36 1010.3
20220811030032 87 85 6.1 13.0 0.00 0.00 0.00 34 1009.6
20220811024538 87 57 7.0 15.6 0.00 0.00 0.00 34 1009.3
20220811023027 88 86 6.1 16.5 0.00 0.00 0.00 34 1008.9
20220811021540 88 74 7.0 16.5 0.00 0.00 0.00 34 1008.7
20220811020026 88 74 10.4 17.4 0.00 0.00 0.00 33 1008.6
20220811014533 89 121 10.4 18.2 0.00 0.00 0.00 33 1008.3
20220811013023 90 105 9.6 15.6 0.00 0.00 0.00 32 1008.1
20220811011540 91 50 7.8 17.4 0.00 0.00 0.00 31 1008.1
20220811010125 91 46 8.7 13.9 0.00 0.00 0.00 31 1007.6
20220811004559 92 103 11.3 20.0 0.00 0.00 0.00 29 1007.6
20220811003021 93 88 10.4 20.0 0.00 0.00 0.00 28 1007.5
20220811001518 95 25 3.5 13.9 0.00 0.00 0.00 25 1007.2